Time;durP1;ratioP1;P1;durP2;ratioP2;P2;SDS_P1;SDS_P2;PMS_P1;PMS_P2;Temp;Humidity;BMP_temperature;BMP_pressure;BME280_temperature;BME280_humidity;BME280_pressure;Samples;Min_cycle;Max_cycle;Signal;HPM_P1;HPM_P2
2022/07/20 00:00:29;;;;;;;10.55;3.38;;;;;;;27.29;30.31;101060.53;4970883;28;20065;-73
2022/07/20 00:02:54;;;;;;;9.95;3.45;;;;;;;27.28;30.62;101075.09;4972780;28;20114;-73
2022/07/20 00:05:20;;;;;;;5.55;3.03;;;;;;;27.23;31.32;101072.22;4971511;28;20038;-73
2022/07/20 00:07:45;;;;;;;8.30;2.80;;;;;;;27.17;31.93;101071.19;4954037;28;20022;-73
2022/07/20 00:12:54;;;;;;;8.82;3.15;;;;;;;27.06;31.41;101076.47;4972266;28;20050;-73
2022/07/20 00:15:20;;;;;;;7.65;3.65;;;;;;;26.95;33.02;101066.31;4953046;28;20034;-73
2022/07/20 00:17:45;;;;;;;7.18;3.25;;;;;;;26.89;33.28;101061.78;4971723;28;20030;-73
2022/07/20 00:20:11;;;;;;;7.00;3.17;;;;;;;26.87;32.15;101061.16;4954739;28;20042;-73
2022/07/20 00:22:36;;;;;;;8.25;3.40;;;;;;;26.81;31.97;101068.22;4970401;28;20589;-73
2022/07/20 00:25:03;;;;;;;9.35;3.65;;;;;;;26.68;33.04;101069.13;4971889;28;20030;-73
2022/07/20 00:27:28;;;;;;;5.93;3.30;;;;;;;26.65;33.98;101061.44;4971011;28;20023;-73
2022/07/20 00:29:54;;;;;;;7.85;3.30;;;;;;;26.56;34.88;101070.00;4953981;28;20158;-73
2022/07/20 00:32:19;;;;;;;8.38;3.35;;;;;;;26.50;34.36;101077.09;4971327;28;20032;-73
2022/07/20 00:34:44;;;;;;;7.60;3.33;;;;;;;26.42;36.43;101091.66;4971770;28;20266;-73
2022/07/20 00:37:10;;;;;;;10.70;3.58;;;;;;;26.32;33.44;101147.88;4965873;28;20035;-73
2022/07/20 00:39:35;;;;;;;10.68;3.83;;;;;;;26.18;33.19;101085.00;4951526;29;20027;-73
2022/07/20 00:42:00;;;;;;;8.93;3.40;;;;;;;26.13;33.25;101076.72;4951663;29;20480;-73
2022/07/20 00:44:26;;;;;;;8.05;3.60;;;;;;;26.11;33.33;101089.59;4951802;29;20132;-73
2022/07/20 00:46:53;;;;;;;10.27;4.22;;;;;;;26.02;35.55;101092.72;4935754;29;20477;-73
2022/07/20 00:49:18;;;;;;;8.43;3.67;;;;;;;25.89;36.44;101113.25;4951081;29;20035;-74
2022/07/20 00:51:44;;;;;;;11.32;4.40;;;;;;;25.85;34.12;101127.34;4952400;29;20499;-73
2022/07/20 00:54:10;;;;;;;14.35;4.05;;;;;;;25.76;34.04;101107.03;4952291;28;20491;-72
2022/07/20 00:56:36;;;;;;;7.38;3.80;;;;;;;25.65;34.61;101105.75;4956153;28;20287;-72
2022/07/20 00:59:08;;;;;;;7.85;3.90;;;;;;;25.64;34.61;101151.78;4971399;28;20456;-72
2022/07/20 01:01:34;;;;;;;7.78;3.85;;;;;;;25.45;35.02;101099.50;4953633;28;20065;-72
2022/07/20 01:03:59;;;;;;;11.98;4.00;;;;;;;25.42;35.96;101103.44;4971304;28;20415;-72
2022/07/20 01:06:25;;;;;;;10.25;4.07;;;;;;;25.41;35.08;101100.94;4971106;28;20035;-72
2022/07/20 01:08:51;;;;;;;9.15;4.07;;;;;;;25.33;35.02;101101.97;4972287;28;20018;-73
2022/07/20 01:11:17;;;;;;;7.80;3.60;;;;;;;25.30;35.46;101105.06;4970547;28;20509;-73
2022/07/20 01:13:42;;;;;;;9.35;4.03;;;;;;;25.25;37.20;101100.28;4971806;28;20033;-73
2022/07/20 01:16:08;;;;;;;9.10;3.70;;;;;;;25.21;35.40;101092.78;4971544;28;20520;-73
2022/07/20 01:18:33;;;;;;;8.90;4.00;;;;;;;25.13;37.19;101117.22;4970144;28;20033;-73
2022/07/20 01:21:06;;;;;;;9.60;3.80;;;;;;;25.10;36.70;101104.16;4971633;28;20473;-72
2022/07/20 01:23:32;;;;;;;7.15;4.38;;;;;;;25.05;36.42;101098.56;4970926;28;20518;-72
2022/07/20 01:25:58;;;;;;;13.85;4.22;;;;;;;24.98;36.39;101096.69;4970564;28;20054;-73
2022/07/20 01:28:24;;;;;;;12.10;3.97;;;;;;;24.94;35.91;101098.09;4970837;28;20065;-73
2022/07/20 01:30:50;;;;;;;6.82;4.03;;;;;;;24.89;36.32;101089.78;4971346;28;20037;-73
2022/07/20 01:33:18;;;;;;;18.75;4.57;;;;;;;24.90;35.63;101094.13;4970788;28;20031;-74
2022/07/20 01:35:44;;;;;;;16.67;4.60;;;;;;;24.90;35.98;101086.06;4971420;28;20443;-74
2022/07/20 01:38:09;;;;;;;6.95;4.13;;;;;;;24.90;35.63;101086.06;4940819;28;20074;-73
2022/07/20 01:40:34;;;;;;;8.25;3.90;;;;;;;24.89;36.12;101088.94;4933073;29;20578;-73
2022/07/20 01:43:00;;;;;;;9.93;4.25;;;;;;;24.88;36.22;101085.44;4951793;29;20396;-73
2022/07/20 01:45:25;;;;;;;7.53;3.95;;;;;;;24.85;36.63;101090.41;4950620;29;20118;-73
2022/07/20 01:47:51;;;;;;;12.68;4.35;;;;;;;24.80;36.46;101093.66;4952145;28;20100;-73
2022/07/20 01:50:19;;;;;;;10.75;3.88;;;;;;;24.80;36.12;101101.72;4938513;29;20019;-73
2022/07/20 01:52:45;;;;;;;8.15;3.83;;;;;;;24.75;37.20;101104.19;4955172;29;20392;-74
2022/07/20 01:55:10;;;;;;;6.75;3.85;;;;;;;24.70;38.99;101112.03;4939298;29;20028;-73
2022/07/20 01:57:36;;;;;;;8.55;3.78;;;;;;;24.66;38.03;101106.22;4961669;28;20484;-73
2022/07/20 02:00:05;;;;;;;8.80;4.38;;;;;;;24.57;38.91;101123.56;4972693;28;20078;-73
2022/07/20 02:02:30;;;;;;;10.43;4.68;;;;;;;24.45;38.04;101135.09;4973888;28;20151;-73
2022/07/20 02:04:55;;;;;;;9.57;4.40;;;;;;;24.36;39.07;101156.75;4957222;28;20495;-73
2022/07/20 02:07:21;;;;;;;8.98;4.50;;;;;;;24.35;37.28;101156.94;4973109;28;20023;-73
2022/07/20 02:09:46;;;;;;;13.27;4.78;;;;;;;24.27;37.51;101160.63;4974341;28;20023;-73
2022/07/20 02:12:11;;;;;;;10.95;4.35;;;;;;;24.16;38.16;101162.97;4974179;28;20414;-73
2022/07/20 02:14:37;;;;;;;12.05;4.70;;;;;;;24.13;38.93;101164.22;4973369;28;20014;-73
2022/07/20 02:17:02;;;;;;;12.82;5.95;;;;;;;24.10;39.85;101161.06;4974149;28;20122;-73
2022/07/20 02:19:27;;;;;;;9.60;5.95;;;;;;;24.03;40.29;101153.78;4973592;28;20022;-73
2022/07/20 02:21:53;;;;;;;11.68;6.90;;;;;;;23.98;40.95;101152.69;4973441;28;20033;-73
2022/07/20 02:24:18;;;;;;;12.32;7.05;;;;;;;23.87;41.45;101155.91;4973484;28;20526;-73
2022/07/20 02:26:43;;;;;;;11.50;6.55;;;;;;;23.89;42.36;101162.75;4956752;28;20487;-73
2022/07/20 02:29:09;;;;;;;15.95;7.65;;;;;;;23.74;42.43;101159.31;4973246;28;20031;-73
2022/07/20 02:31:34;;;;;;;15.27;9.55;;;;;;;23.72;43.75;101159.50;4973392;28;20033;-73
2022/07/20 02:34:00;;;;;;;18.48;9.75;;;;;;;23.66;44.14;101149.53;4973957;28;20030;-72
2022/07/20 02:36:28;;;;;;;18.52;10.25;;;;;;;23.59;45.37;101155.81;4972846;28;20031;-73
2022/07/20 02:38:53;;;;;;;22.00;11.20;;;;;;;23.51;46.35;101159.44;4955016;28;20027;-73
2022/07/20 02:41:18;;;;;;;15.80;11.85;;;;;;;23.37;47.72;101160.31;4953400;28;20094;-72
2022/07/20 02:43:43;;;;;;;21.05;13.23;;;;;;;23.44;48.39;101172.81;4953034;28;20382;-72
2022/07/20 02:46:09;;;;;;;23.98;14.30;;;;;;;23.41;49.46;101169.66;4953585;28;20496;-74
2022/07/20 02:48:35;;;;;;;30.73;15.68;;;;;;;23.35;50.76;101165.88;4952113;28;20038;-74
2022/07/20 02:51:00;;;;;;;21.38;14.57;;;;;;;23.30;51.15;101167.47;4953676;28;20027;-73
2022/07/20 02:53:26;;;;;;;24.80;15.13;;;;;;;23.24;51.87;101165.56;4952864;28;20031;-74
2022/07/20 02:55:51;;;;;;;25.83;16.38;;;;;;;23.22;52.47;101162.22;4953236;29;20031;-74
2022/07/20 02:58:16;;;;;;;19.77;15.82;;;;;;;23.17;52.63;101161.94;4971381;28;20027;-74
2022/07/20 03:00:42;;;;;;;28.83;18.05;;;;;;;23.04;53.89;101174.19;4971872;28;20423;-74
2022/07/20 03:03:08;;;;;;;29.73;18.67;;;;;;;23.05;54.12;101178.53;4972686;28;20475;-74
2022/07/20 03:05:35;;;;;;;22.98;18.40;;;;;;;23.01;54.93;101185.28;4972715;28;20534;-73
2022/07/20 03:08:00;;;;;;;28.58;19.90;;;;;;;22.91;55.49;101184.75;4973723;28;20038;-73
2022/07/20 03:10:26;;;;;;;27.20;19.83;;;;;;;22.83;55.82;101175.97;4972368;28;20018;-74
2022/07/20 03:12:51;;;;;;;26.95;20.48;;;;;;;22.81;56.29;101165.38;4973861;28;20035;-74
2022/07/20 03:15:17;;;;;;;28.67;20.38;;;;;;;22.75;56.68;101161.56;4973183;28;20523;-74
2022/07/20 03:17:47;;;;;;;31.83;21.63;;;;;;;22.66;57.22;101164.53;4972865;28;20101;-74
2022/07/20 03:20:17;;;;;;;33.65;22.33;;;;;;;22.65;58.13;101168.22;4956381;28;20022;-74
2022/07/20 03:22:43;;;;;;;34.85;22.60;;;;;;;22.62;58.38;101174.81;4973555;28;20027;-73
2022/07/20 03:25:09;;;;;;;39.60;22.95;;;;;;;22.51;58.99;101181.47;4972980;28;20657;-73
2022/07/20 03:27:35;;;;;;;33.10;22.13;;;;;;;22.52;59.47;101190.34;4972752;28;20027;-73
2022/07/20 03:30:01;;;;;;;37.25;23.08;;;;;;;22.51;59.18;101200.22;4955908;28;20023;-73
2022/07/20 03:32:27;;;;;;;31.77;23.48;;;;;;;22.39;60.39;101201.66;4972046;28;20033;-72
2022/07/20 03:34:52;;;;;;;31.95;24.00;;;;;;;22.36;60.85;101214.59;4973317;28;20383;-72
2022/07/20 03:37:17;;;;;;;37.75;23.88;;;;;;;22.28;61.04;101212.84;4949177;29;20043;-73
2022/07/20 03:39:43;;;;;;;34.90;24.83;;;;;;;22.24;61.77;101214.22;4952874;29;20078;-73
2022/07/20 03:42:08;;;;;;;35.20;24.95;;;;;;;22.15;62.06;101220.66;4936705;29;20086;-74
2022/07/20 03:44:33;;;;;;;34.47;24.98;;;;;;;22.13;62.56;101231.56;4952829;29;20086;-73
2022/07/20 03:46:58;;;;;;;36.95;25.73;;;;;;;22.07;63.36;101232.28;4935150;28;20023;-73
2022/07/20 03:49:24;;;;;;;41.15;26.38;;;;;;;22.04;63.80;101239.84;4952457;28;20487;-73
2022/07/20 03:51:49;;;;;;;38.35;27.38;;;;;;;21.97;63.69;101239.69;4952769;28;20055;-73
2022/07/20 03:54:14;;;;;;;36.53;25.85;;;;;;;21.95;64.11;101248.91;4935596;29;20019;-73
2022/07/20 03:56:40;;;;;;;37.00;27.10;;;;;;;21.97;64.41;101254.91;4957656;28;20038;-73
2022/07/20 03:59:09;;;;;;;34.15;27.33;;;;;;;21.97;64.13;101255.75;4954893;28;20019;-73
2022/07/20 04:01:35;;;;;;;36.03;28.30;;;;;;;21.96;64.39;101263.97;4972142;28;20414;-73
2022/07/20 04:04:01;;;;;;;40.60;27.88;;;;;;;21.93;64.35;101267.00;4972870;28;20027;-73
2022/07/20 04:06:26;;;;;;;36.22;26.95;;;;;;;21.94;64.52;101266.84;4971347;28;20476;-73
2022/07/20 04:08:52;;;;;;;35.40;26.88;;;;;;;22.01;64.12;101275.00;4972848;28;20078;-73
2022/07/20 04:11:17;;;;;;;42.80;27.30;;;;;;;22.00;63.96;101276.00;4971953;28;20390;-74
2022/07/20 04:13:42;;;;;;;35.97;26.73;;;;;;;21.96;63.76;101274.69;4972152;28;20034;-73
2022/07/20 04:16:08;;;;;;;34.53;26.50;;;;;;;21.98;63.69;101272.66;4972475;28;20403;-73
2022/07/20 04:18:33;;;;;;;32.78;26.60;;;;;;;22.06;63.42;101272.66;4954666;28;20058;-74
2022/07/20 04:20:58;;;;;;;31.98;25.33;;;;;;;22.11;63.73;101281.00;4971797;28;20030;-73
2022/07/20 04:23:24;;;;;;;37.25;26.42;;;;;;;22.21;62.97;101278.91;4972028;28;20037;-73
2022/07/20 04:25:49;;;;;;;34.67;25.08;;;;;;;22.31;62.50;101284.03;4972557;28;20478;-74
2022/07/20 04:28:18;;;;;;;34.25;25.02;;;;;;;22.30;62.45;101293.09;4971825;28;20033;-72
2022/07/20 04:30:44;;;;;;;33.67;24.63;;;;;;;22.35;62.35;101285.34;4954554;28;20030;-73
2022/07/20 04:33:09;;;;;;;31.50;24.55;;;;;;;22.30;62.87;101295.78;4972467;28;20030;-73
2022/07/20 04:35:37;;;;;;;30.30;24.35;;;;;;;22.34;62.25;101292.56;4971262;28;20050;-73
2022/07/20 04:38:03;;;;;;;35.60;23.73;;;;;;;22.39;62.09;101292.00;4960117;28;20062;-72
2022/07/20 04:40:28;;;;;;;30.38;24.15;;;;;;;22.36;62.24;101298.56;4952348;29;20028;-73
2022/07/20 04:42:54;;;;;;;30.30;23.17;;;;;;;22.50;61.47;101303.16;4952426;29;20035;-72
2022/07/20 04:45:20;;;;;;;29.15;23.30;;;;;;;22.49;61.41;101314.91;4952230;29;20053;-73
2022/07/20 04:47:45;;;;;;;29.05;22.40;;;;;;;22.49;61.57;101312.22;4952711;29;20058;-73
2022/07/20 04:50:10;;;;;;;33.53;22.45;;;;;;;22.46;61.55;101314.44;4952377;29;20050;-73
2022/07/20 04:52:36;;;;;;;27.13;22.10;;;;;;;22.42;61.84;101316.66;4951965;29;20031;-72
2022/07/20 04:55:02;;;;;;;28.95;22.25;;;;;;;22.44;61.15;101319.97;4935156;29;20031;-72
2022/07/20 04:57:27;;;;;;;29.27;22.00;;;;;;;22.41;61.58;101320.31;4945773;28;20546;-73
2022/07/20 04:59:52;;;;;;;27.90;21.73;;;;;;;22.39;61.62;101313.47;4971070;28;20051;-72
2022/07/20 05:02:18;;;;;;;28.52;21.42;;;;;;;22.44;61.63;101317.28;4953155;28;20531;-73
2022/07/20 05:04:46;;;;;;;28.83;21.85;;;;;;;22.44;61.47;101311.94;4971732;28;20022;-73
2022/07/20 05:07:12;;;;;;;29.65;20.42;;;;;;;22.46;61.48;101309.91;4971681;28;20023;-73
2022/07/20 05:09:37;;;;;;;27.85;20.88;;;;;;;22.42;61.46;101313.97;4970534;28;20526;-73
2022/07/20 05:12:02;;;;;;;25.20;20.45;;;;;;;22.41;61.20;101306.91;4971880;28;20030;-73
2022/07/20 05:14:28;;;;;;;25.38;19.80;;;;;;;22.42;60.99;101313.97;4971225;28;20538;-73
2022/07/20 05:16:53;;;;;;;26.13;21.27;;;;;;;22.38;61.40;101312.63;4971236;28;20130;-73
2022/07/20 05:19:18;;;;;;;32.38;20.30;;;;;;;22.40;61.55;101321.31;4953742;28;20054;-74
2022/07/20 05:21:43;;;;;;;28.27;20.70;;;;;;;22.47;61.46;101324.16;4971787;28;20030;-73
2022/07/20 05:24:09;;;;;;;23.90;19.75;;;;;;;22.47;61.10;101327.66;4953158;28;20027;-73
2022/07/20 05:26:34;;;;;;;25.98;19.80;;;;;;;22.51;61.19;101346.91;4971118;28;20490;-73
2022/07/20 05:28:59;;;;;;;32.15;20.40;;;;;;;22.55;60.98;101348.22;4971367;28;20498;-73
2022/07/20 05:31:25;;;;;;;28.63;19.90;;;;;;;22.52;61.21;101360.13;4970624;28;20069;-73
2022/07/20 05:33:50;;;;;;;30.23;20.85;;;;;;;22.57;60.89;101353.41;4971948;28;20146;-73
2022/07/20 05:36:18;;;;;;;29.13;20.63;;;;;;;22.61;60.72;101360.06;4971441;28;20023;-73
2022/07/20 05:38:43;;;;;;;25.73;18.60;;;;;;;22.64;60.76;101357.03;4953111;28;20050;-73
2022/07/20 05:41:09;;;;;;;27.60;18.75;;;;;;;22.69;60.36;101363.53;4952345;29;20496;-74
2022/07/20 05:43:34;;;;;;;28.33;19.50;;;;;;;22.74;60.05;101371.03;4951634;29;20460;-73
2022/07/20 05:45:59;;;;;;;26.60;18.38;;;;;;;22.81;59.87;101378.22;4951448;29;20038;-73
2022/07/20 05:48:25;;;;;;;27.83;17.80;;;;;;;22.92;59.80;101386.88;4951640;29;20039;-73
2022/07/20 05:50:50;;;;;;;28.70;17.83;;;;;;;22.95;58.69;101389.19;4952296;29;20034;-73
2022/07/20 05:53:16;;;;;;;32.38;16.88;;;;;;;23.04;58.71;101401.50;4951358;29;20023;-73
2022/07/20 05:55:42;;;;;;;24.13;17.38;;;;;;;23.09;58.69;101405.31;4951050;29;20181;-73
2022/07/20 05:58:09;;;;;;;30.05;16.15;;;;;;;23.14;58.95;101410.97;4968537;28;20085;-72
2022/07/20 06:00:36;;;;;;;25.30;17.10;;;;;;;23.16;57.97;101407.25;4969687;28;20078;-73
2022/07/20 06:03:03;;;;;;;24.00;16.05;;;;;;;23.23;57.82;101418.97;4971260;28;20031;-72
2022/07/20 06:05:28;;;;;;;18.73;14.68;;;;;;;23.29;57.84;101431.66;4953237;28;20069;-72
2022/07/20 06:07:55;;;;;;;26.80;15.13;;;;;;;23.30;57.99;101441.38;4971025;28;20054;-73
2022/07/20 06:10:21;;;;;;;29.63;15.55;;;;;;;23.36;57.66;101436.13;4937645;28;20053;-73
2022/07/20 06:12:46;;;;;;;21.45;14.38;;;;;;;23.38;57.46;101435.94;4970852;28;20479;-73
2022/07/20 06:15:11;;;;;;;22.88;15.35;;;;;;;23.36;57.76;101451.41;4971191;28;20027;-73
2022/07/20 06:17:38;;;;;;;24.52;15.02;;;;;;;23.35;57.44;101460.47;4970453;28;20631;-73
2022/07/20 06:20:06;;;;;;;17.92;13.85;;;;;;;23.33;57.58;101462.50;4952825;28;20498;-74
2022/07/20 06:22:31;;;;;;;21.25;14.38;;;;;;;23.34;57.45;101458.81;4970618;28;20465;-74
2022/07/20 06:24:57;;;;;;;25.35;14.43;;;;;;;23.34;57.15;101473.06;4971042;28;20111;-74
2022/07/20 06:27:22;;;;;;;24.17;13.52;;;;;;;23.39;57.27;101477.91;4970119;28;20027;-74
2022/07/20 06:29:48;;;;;;;20.40;14.45;;;;;;;23.37;57.20;101479.94;4971043;28;20022;-73
2022/07/20 06:32:13;;;;;;;21.00;13.98;;;;;;;23.41;57.20;101486.59;4970768;28;20142;-73
2022/07/20 06:34:38;;;;;;;21.95;14.38;;;;;;;23.41;56.94;101500.88;4971151;28;20030;-74
2022/07/20 06:37:04;;;;;;;26.83;14.43;;;;;;;23.45;56.96;101498.66;4953113;29;20027;-74
2022/07/20 06:39:29;;;;;;;20.65;13.93;;;;;;;23.44;56.72;101516.63;4937182;29;20458;-74
2022/07/20 06:41:54;;;;;;;21.58;13.70;;;;;;;23.41;57.48;101518.84;4954560;29;20034;-74
2022/07/20 06:44:20;;;;;;;21.45;13.57;;;;;;;23.42;58.02;101532.09;4954496;29;20081;-73
2022/07/20 06:46:45;;;;;;;23.42;13.98;;;;;;;23.37;58.16;101523.72;4955107;29;20054;-73
2022/07/20 06:49:11;;;;;;;26.83;14.52;;;;;;;23.38;58.07;101529.94;4954240;29;20066;-74
2022/07/20 06:51:36;;;;;;;18.98;13.60;;;;;;;23.34;57.81;101536.69;4954268;29;20024;-73
2022/07/20 06:54:01;;;;;;;18.33;13.98;;;;;;;23.33;57.76;101535.03;4954769;29;20074;-73
2022/07/20 06:56:27;;;;;;;19.15;13.27;;;;;;;23.33;57.86;101538.53;4957765;28;20019;-73
2022/07/20 06:58:52;;;;;;;19.92;13.23;;;;;;;23.31;57.40;101547.78;4955498;28;20479;-72
2022/07/20 07:01:17;;;;;;;20.30;13.85;;;;;;;23.31;57.35;101550.47;4973240;28;20047;-73
2022/07/20 07:03:42;;;;;;;20.13;12.88;;;;;;;23.31;56.76;101550.47;4973317;28;20026;-72
2022/07/20 07:06:08;;;;;;;20.42;13.50;;;;;;;23.34;57.04;101559.00;4973978;28;20026;-72
2022/07/20 07:08:33;;;;;;;20.95;13.85;;;;;;;23.43;57.20;101565.16;4973525;28;20098;-73
2022/07/20 07:10:58;;;;;;;20.65;13.38;;;;;;;23.56;57.34;101543.91;4956062;28;20044;-73
2022/07/20 07:13:24;;;;;;;21.48;13.02;;;;;;;23.60;57.09;101528.25;4973388;28;20062;-73
2022/07/20 07:15:49;;;;;;;24.98;13.60;;;;;;;23.69;56.24;101528.03;4973539;28;20069;-73
2022/07/20 07:18:14;;;;;;;23.48;12.95;;;;;;;23.90;56.50;101534.53;4973450;28;20461;-73
2022/07/20 07:20:40;;;;;;;20.58;13.13;;;;;;;24.15;56.55;101533.25;4973255;28;20027;-73
2022/07/20 07:23:05;;;;;;;22.17;12.85;;;;;;;24.43;54.73;101535.31;4955900;28;20053;-72
2022/07/20 07:25:31;;;;;;;14.93;11.75;;;;;;;24.63;54.02;101541.75;4973135;28;20027;-72
2022/07/20 07:27:56;;;;;;;22.95;12.35;;;;;;;24.87;53.56;101548.69;4956249;28;20023;-73
2022/07/20 07:30:21;;;;;;;19.25;11.38;;;;;;;24.83;53.18;101558.16;4972529;28;20030;-73
2022/07/20 07:32:47;;;;;;;15.68;11.35;;;;;;;24.85;52.95;101562.34;4973504;28;20109;-73
2022/07/20 07:35:12;;;;;;;15.38;11.18;;;;;;;25.08;53.26;101578.34;4974124;28;20472;-73
2022/07/20 07:37:40;;;;;;;16.35;10.70;;;;;;;25.26;53.48;101575.22;4963673;28;20046;-73
2022/07/20 07:40:06;;;;;;;17.60;10.77;;;;;;;25.40;52.06;101577.03;4954047;29;20019;-73
2022/07/20 07:42:31;;;;;;;19.08;11.45;;;;;;;25.67;51.44;101580.81;4953587;29;20494;-73
2022/07/20 07:44:57;;;;;;;18.70;11.50;;;;;;;25.80;51.30;101582.78;4953672;29;20023;-73
2022/07/20 07:47:22;;;;;;;15.50;10.60;;;;;;;26.04;50.44;101585.06;4952953;28;20031;-73
2022/07/20 07:49:47;;;;;;;15.38;10.75;;;;;;;26.12;49.80;101597.56;4954035;29;20074;-73
2022/07/20 07:52:12;;;;;;;20.17;11.27;;;;;;;26.28;49.92;101593.69;4920195;29;20024;-73
2022/07/20 07:54:38;;;;;;;16.10;10.15;;;;;;;26.47;49.80;101590.31;4935606;29;20034;-73
2022/07/20 07:57:03;;;;;;;15.10;9.80;;;;;;;26.60;48.46;101589.53;4962548;28;20033;-74
2022/07/20 07:59:29;;;;;;;15.00;9.85;;;;;;;26.98;48.04;101598.00;4970830;28;20057;-73
2022/07/20 08:01:54;;;;;;;15.73;9.43;;;;;;;27.03;46.97;101587.44;4972699;28;20447;-73
2022/07/20 08:04:21;;;;;;;15.38;8.75;;;;;;;27.18;46.06;101577.28;4972162;28;20699;-73
2022/07/20 08:06:48;;;;;;;17.83;9.00;;;;;;;27.27;46.19;101570.69;4972165;28;20065;-73
2022/07/20 08:09:13;;;;;;;20.17;9.00;;;;;;;27.47;45.71;101563.41;4972677;28;20054;-73
2022/07/20 08:11:39;;;;;;;16.10;9.18;;;;;;;27.52;45.84;101557.38;4972056;28;20497;-73
2022/07/20 08:14:04;;;;;;;20.40;9.18;;;;;;;27.75;45.11;101551.59;4971973;28;20054;-73
2022/07/20 08:16:31;;;;;;;17.17;9.45;;;;;;;27.92;44.07;101547.41;4972202;28;20037;-73
2022/07/20 08:18:56;;;;;;;18.30;8.90;;;;;;;27.95;44.44;101541.56;4972610;28;20113;-73
2022/07/20 08:21:22;;;;;;;13.85;9.07;;;;;;;27.83;45.14;101550.53;4971717;28;20129;-73
2022/07/20 08:23:47;;;;;;;19.27;9.35;;;;;;;27.77;45.69;101550.34;4972694;28;20505;-73
2022/07/20 08:26:12;;;;;;;13.75;9.00;;;;;;;27.74;44.23;101544.53;4971968;28;20030;-73
2022/07/20 08:28:39;;;;;;;18.05;9.70;;;;;;;27.60;45.13;101550.91;4971700;28;20098;-73
2022/07/20 08:31:05;;;;;;;13.40;8.82;;;;;;;27.68;46.36;101573.22;4972242;28;20474;-73
2022/07/20 08:33:31;;;;;;;12.73;9.35;;;;;;;27.69;45.17;101577.59;4971546;28;20026;-73
2022/07/20 08:35:56;;;;;;;13.98;9.52;;;;;;;27.76;46.39;101583.84;4972251;28;20019;-72
2022/07/20 08:38:22;;;;;;;18.92;10.13;;;;;;;27.95;45.44;101584.84;4957395;28;20058;-73
2022/07/20 08:40:47;;;;;;;15.55;9.57;;;;;;;28.06;44.82;101592.34;4952340;29;20038;-73
2022/07/20 08:43:14;;;;;;;14.43;9.00;;;;;;;28.06;44.92;101597.75;4953543;29;20023;-73
2022/07/20 08:45:40;;;;;;;18.33;9.80;;;;;;;28.04;44.95;101591.72;4952542;29;20023;-73
2022/07/20 08:48:10;;;;;;;17.42;9.23;;;;;;;28.04;45.85;101586.31;4952560;29;20015;-73
2022/07/20 08:50:36;;;;;;;16.65;10.13;;;;;;;28.02;45.49;101583.00;4952169;29;20519;-73
2022/07/20 08:53:02;;;;;;;17.90;9.77;;;;;;;28.21;44.80;101578.56;4952768;29;20019;-73
2022/07/20 08:55:28;;;;;;;14.65;9.38;;;;;;;28.17;44.11;101579.22;4933418;29;20035;-73
2022/07/20 08:57:53;;;;;;;13.93;9.55;;;;;;;28.01;44.26;101569.66;4966934;28;20022;-73
2022/07/20 09:00:19;;;;;;;11.63;9.80;;;;;;;27.88;45.05;101570.50;4970023;28;20130;-73
2022/07/20 09:03:01;;;;;;;14.75;9.63;;;;;;;27.81;46.03;101545.34;4971541;28;20039;-73
2022/07/20 09:05:28;;;;;;;15.65;9.88;;;;;;;27.65;45.64;101538.50;4971656;28;20038;-73
2022/07/20 09:07:55;;;;;;;16.55;10.65;;;;;;;27.28;46.49;101553.44;4972355;28;20506;-73
2022/07/20 09:10:22;;;;;;;19.02;10.63;;;;;;;27.09;46.59;101571.25;4970960;28;20026;-73
2022/07/20 09:12:59;;;;;;;17.98;10.10;;;;;;;26.99;47.30;101588.91;4938364;28;20579;-73
2022/07/20 09:15:54;;;;;;;19.80;10.50;;;;;;;26.90;47.57;101584.69;4970991;28;20077;-73
2022/07/20 09:18:24;;;;;;;17.95;10.80;;;;;;;26.96;47.45;101637.91;4953846;28;20019;-73
2022/07/20 09:21:04;;;;;;;13.48;9.73;;;;;;;26.94;47.68;101658.88;4972864;28;20022;-73
2022/07/20 09:23:44;;;;;;;15.90;10.10;;;;;;;26.75;48.19;101671.25;4970538;28;20085;-73
2022/07/20 09:26:12;;;;;;;17.95;9.73;;;;;;;26.55;48.72;101676.53;4972573;28;20475;-73
2022/07/20 09:28:42;;;;;;;16.67;10.45;;;;;;;26.47;48.64;101682.09;4971072;28;20026;-73
2022/07/20 09:31:29;;;;;;;17.17;10.43;;;;;;;26.51;48.39;101673.41;4953654;28;20030;-73
2022/07/20 09:34:00;;;;;;;16.75;9.98;;;;;;;26.69;48.67;101664.78;4971630;28;20027;-73
2022/07/20 09:36:29;;;;;;;20.58;9.65;;;;;;;27.02;48.84;101654.16;4970690;28;20054;-73
2022/07/20 09:39:04;;;;;;;15.32;9.77;;;;;;;27.40;48.33;101654.47;4953014;28;20035;-73
2022/07/20 09:41:31;;;;;;;14.43;9.88;;;;;;;27.60;46.16;101651.81;4952117;29;20480;-73
2022/07/20 09:43:59;;;;;;;16.17;10.02;;;;;;;27.72;47.65;101652.06;4951854;29;20100;-73
2022/07/20 09:46:30;;;;;;;13.93;10.20;;;;;;;27.87;45.86;101651.88;4934932;29;20032;-73
2022/07/20 09:48:58;;;;;;;17.35;9.65;;;;;;;27.89;46.11;101653.31;4951827;29;20483;-73
2022/07/20 09:51:45;;;;;;;13.18;9.38;;;;;;;28.16;45.74;101635.22;4951347;29;20034;-73
2022/07/20 09:54:18;;;;;;;12.68;9.07;;;;;;;28.78;44.62;101633.81;4934746;29;20026;-73
2022/07/20 09:56:49;;;;;;;15.20;9.13;;;;;;;29.15;42.42;101623.25;4940112;28;20023;-74
2022/07/20 09:59:19;;;;;;;10.25;8.82;;;;;;;29.21;42.57;101620.50;4969748;28;20034;-73
2022/07/20 10:01:48;;;;;;;19.60;8.68;;;;;;;29.42;41.40;101630.19;4971141;28;20055;-73
2022/07/20 10:04:14;;;;;;;11.93;8.25;;;;;;;29.38;41.12;101625.41;4971481;28;20074;-73
2022/07/20 10:06:45;;;;;;;13.30;7.90;;;;;;;29.30;40.73;101629.22;4969955;28;20038;-74
2022/07/20 10:09:14;;;;;;;12.48;8.23;;;;;;;29.11;41.34;101641.84;4971504;28;20077;-74
2022/07/20 10:11:39;;;;;;;12.10;8.25;;;;;;;29.06;42.29;101646.25;4957237;28;20109;-74
2022/07/20 10:14:06;;;;;;;14.05;7.75;;;;;;;29.02;42.93;101656.69;4974751;28;20157;-74
2022/07/20 10:16:36;;;;;;;13.18;8.10;;;;;;;29.29;42.62;101652.81;4956893;28;20034;-74
2022/07/20 10:19:05;;;;;;;13.63;8.57;;;;;;;29.49;43.27;101628.28;4974116;28;20397;-73
2022/07/20 10:21:42;;;;;;;15.40;8.80;;;;;;;29.74;42.45;101639.19;4974135;28;20031;-74
2022/07/20 10:24:30;;;;;;;14.10;8.57;;;;;;;29.92;41.37;101636.50;4957425;28;20122;-73
2022/07/20 10:27:08;;;;;;;11.45;8.48;;;;;;;29.95;42.14;101630.63;4974089;28;20019;-72
2022/07/20 10:29:37;;;;;;;14.90;9.20;;;;;;;30.06;40.83;101628.28;4973896;28;20026;-73
2022/07/20 10:32:08;;;;;;;11.95;7.60;;;;;;;29.80;41.20;101626.59;4974409;28;20475;-73
2022/07/20 10:34:39;;;;;;;9.95;6.78;;;;;;;30.04;39.93;101622.25;4973500;28;20085;-73
2022/07/20 10:37:35;;;;;;;10.23;6.75;;;;;;;30.35;40.73;101624.00;4953310;29;20023;-73
2022/07/20 10:40:08;;;;;;;11.68;6.60;;;;;;;30.55;40.21;101614.59;4954307;29;20035;-73
2022/07/20 10:43:06;;;;;;;11.95;7.28;;;;;;;30.61;39.78;101612.06;4954391;29;20028;-74
2022/07/20 10:45:32;;;;;;;10.60;7.07;;;;;;;30.72;39.73;101611.28;4950810;29;20046;-74
2022/07/20 10:48:00;;;;;;;11.15;7.78;;;;;;;30.59;39.27;101604.09;4954225;29;20058;-74
2022/07/20 10:50:31;;;;;;;10.50;7.10;;;;;;;30.87;38.36;101619.88;4954368;29;20023;-74
2022/07/20 10:52:59;;;;;;;10.90;7.10;;;;;;;30.95;38.16;101624.16;4955111;29;20086;-74
2022/07/20 10:55:44;;;;;;;11.20;6.88;;;;;;;30.68;38.66;101624.50;4952772;28;20034;-74
2022/07/20 10:58:11;;;;;;;12.02;7.15;;;;;;;30.51;38.83;101626.97;4971119;28;20090;-73
2022/07/20 11:00:42;;;;;;;10.82;6.97;;;;;;;30.65;39.20;101637.72;4954096;28;20065;-74
2022/07/20 11:03:22;;;;;;;14.13;7.38;;;;;;;30.76;38.78;101628.78;4973414;28;20122;-74
2022/07/20 11:05:58;;;;;;;13.20;7.40;;;;;;;30.97;40.00;101639.19;4974154;28;20480;-73
2022/07/20 11:08:23;;;;;;;8.32;6.95;;;;;;;30.78;39.26;101634.81;4955657;28;20480;-74
2022/07/20 11:10:48;;;;;;;13.30;6.63;;;;;;;31.08;39.49;101630.25;4973749;28;20105;-74
2022/07/20 11:13:18;;;;;;;10.15;6.70;;;;;;;30.94;38.64;101631.50;4974115;28;20395;-73
2022/07/20 11:15:45;;;;;;;10.27;6.15;;;;;;;31.29;38.79;101614.53;4973255;28;20062;-73